Latest Weather Observations for Stenhouse Bay

IDS60801

Issued at 4:31 am CST Thursday 28 July 2016 (issued every 30 minutes, with the page automatically refreshed every 10 minutes)

About weather observations | Map of weather stations | Latest weather observations for SA | Other Formats
Station Details ID: 022049 Name: STENHOUSE BAY Lat: -35.28 Lon: 136.94 Height: 42.0 m
Data from the previous 72 hours. | See also: Recent months at Stenhouse Bay
Date/Time
CST
Temp
°C
App
Temp
°C
Dew
Point
°C
Rel
Hum
%
Delta-T
°C
Wind Press
QNH
hPa
Press
MSL
hPa
Rain since
9am
mm
Dir  Spd
km/h
Gust
km/h
Spd
kts
Gust
kts
28/04:30am 12.5 9.1 9.1 80 1.7 W 17 24 9 13 1026.6 1026.7 0.0
28/04:00am 11.9 9.9 10.3 90 0.8 W 11 20 6 11 1026.8 1026.9 0.0
28/03:30am 11.9 8.9 10.5 91 0.7 W 17 28 9 15 1026.7 1026.8 0.0
28/03:00am 11.8 9.3 10.9 94 0.5 WNW 15 22 8 12 1026.8 1026.9 0.0
28/02:30am 12.0 9.5 11.2 95 0.4 WSW 15 22 8 12 1026.8 1026.9 0.0
28/02:00am 12.4 9.2 9.8 84 1.3 W 17 26 9 14 1027.0 1027.1 0.0
28/01:30am 11.8 8.8 10.5 92 0.7 W 17 28 9 15 1027.0 1027.1 0.0
28/01:00am 12.4 9.4 9.2 81 1.6 W 15 22 8 12 1026.8 1026.9 0.0
28/12:30am 12.3 9.3 9.3 82 1.5 W 15 22 8 12 1026.8 1026.9 0.0
28/12:00am 12.0 8.9 10.4 90 0.8 WNW 17 26 9 14 1026.7 1026.8 0.0
 
Date/Time
CST
Temp
°C
App
Temp
°C
Dew
Point
°C
Rel
Hum
%
Delta-T
°C
Wind Press
QNH
hPa
Press
MSL
hPa
Rain since
9am
mm
Dir  Spd
km/h
Gust
km/h
Spd
kts
Gust
kts
27/11:30pm 11.9 8.6 10.8 93 0.6 W 19 28 10 15 1026.7 1026.8 0.0
27/11:00pm 12.4 9.6 8.5 77 1.9 WNW 13 20 7 11 1026.7 1026.8 0.0
27/10:30pm 12.3 9.3 9.1 81 1.6 WNW 15 20 8 11 1026.9 1027.0 0.0
27/10:00pm 12.4 9.5 8.3 76 2.0 WNW 13 19 7 10 1026.9 1027.0 0.0
27/09:30pm 12.4 9.7 9.1 80 1.7 W 13 19 7 10 1026.9 1027.0 0.0
27/09:00pm 12.4 9.0 9.2 81 1.6 W 17 24 9 13 1026.9 1027.0 0.0
27/08:30pm 12.3 9.2 9.0 80 1.6 W 15 20 8 11 1026.9 1027.0 0.0
27/08:00pm 12.2 9.6 9.4 83 1.4 W 13 17 7 9 1026.8 1026.9 0.0
27/07:30pm 12.3 8.9 9.1 81 1.6 W 17 24 9 13 1026.7 1026.8 0.0
27/07:00pm 12.3 8.2 8.0 75 2.1 W 19 28 10 15 1026.6 1026.7 0.0
27/06:30pm 12.4 8.7 8.1 75 2.1 W 17 28 9 15 1026.5 1026.6 0.0
27/06:00pm 12.2 9.3 8.3 77 1.9 W 13 28 7 15 1026.2 1026.3 0.0
27/05:30pm 12.2 9.0 8.5 78 1.8 W 15 20 8 11 1025.9 1026.0 0.0
27/05:00pm 12.5 8.8 8.0 74 2.2 W 17 24 9 13 1025.6 1025.7 0.0
27/04:30pm 12.4 9.0 9.1 80 1.7 W 17 28 9 15 1025.5 1025.6 0.0
27/04:00pm 12.8 9.0 8.9 77 2.0 WSW 19 26 10 14 1025.3 1025.4 0.0
27/03:30pm 13.0 8.6 7.5 69 2.7 WSW 20 30 11 16 1025.2 1025.3 0.0
27/03:00pm 13.0 8.4 8.3 73 2.3 WSW 22 30 12 16 1024.9 1025.0 0.0
27/02:30pm 13.7 10.1 8.5 71 2.6 WSW 17 26 9 14 1024.7 1024.8 0.0
27/02:00pm 13.1 8.1 8.2 72 2.4 WSW 24 33 13 18 1024.4 1024.5 0.0
27/01:30pm 12.9 8.5 9.0 77 2.0 SW 22 32 12 17 1024.4 1024.5 0.0
27/01:00pm 13.3 8.6 7.7 69 2.8 SW 22 30 12 16 1024.3 1024.4 0.0
27/12:30pm 12.9 7.4 7.6 70 2.6 SW 26 35 14 19 1024.5 1024.6 0.0
27/12:00pm 13.0 8.0 8.1 72 2.4 SW 24 33 13 18 1024.6 1024.7 0.0
27/11:30am 13.6 8.5 7.8 68 2.9 SW 24 32 13 17 1024.7 1024.8 0.0
27/11:00am 13.2 8.5 7.9 70 2.6 SW 22 33 12 18 1024.5 1024.6 0.0
27/10:30am 13.1 9.7 7.8 70 2.6 SW 15 22 8 12 1024.2 1024.3 0.0
27/10:00am 12.6 8.8 7.5 71 2.5 SW 17 24 9 13 1023.9 1023.9 0.0
27/09:30am 12.5 7.7 7.4 71 2.5 SW 22 35 12 19 1023.6 1023.6 0.0
27/09:00am 12.2 7.5 7.7 74 2.2 SSW 22 30 12 16 1022.7 1022.7 7.2
27/08:30am 12.0 7.4 8.1 77 1.9 SSW 22 30 12 16 1022.5 1022.5 7.2
27/08:00am 11.7 6.8 8.4 80 1.6 SSW 24 33 13 18 1022.1 1022.1 7.2
27/07:30am 11.7 6.6 7.8 77 1.9 SSW 24 35 13 19 1021.5 1021.5 7.2
27/07:00am 11.6 5.5 6.7 72 2.3 SSW 28 39 15 21 1020.9 1020.9 7.2
27/06:30am 11.9 6.1 7.8 76 2.0 SSW 28 39 15 21 1020.4 1020.4 7.2
27/06:00am 11.8 5.0 7.1 73 2.3 SSW 32 46 17 25 1019.9 1019.9 7.2
27/05:30am 11.8 4.8 6.9 72 2.3 SSW 33 48 18 26 1019.3 1019.3 7.2
27/05:00am 11.7 4.0 7.0 73 2.3 SSW 37 48 20 26 1018.7 1018.7 7.2
27/04:35am 11.7 5.3 7.0 73 2.3 SSW 30 48 16 26 1018.4 1018.4 7.2
27/04:30am 11.5 4.4 6.4 71 2.4 SSW 33 48 18 26 1018.3 1018.3 7.2
27/04:00am 11.6 4.3 7.1 74 2.2 SSW 35 50 19 27 1017.4 1017.4 7.2
27/03:30am 11.9 5.1 7.6 75 2.1 SSW 33 48 18 26 1017.5 1017.5 7.2
27/03:03am 11.9 4.7 7.6 75 2.1 SSW 35 57 19 31 1017.1 1017.1 7.2
27/03:00am 11.7 4.1 7.6 76 2.0 SSW 37 54 20 29 1017.2 1017.2 7.2
27/02:30am 12.0 5.3 8.3 78 1.8 SW 33 57 18 31 1016.9 1016.9 7.2
27/02:21am 12.0 5.1 9.0 82 1.5 SW 35 56 19 30 1016.9 1016.9 7.2
27/02:00am 11.7 4.3 9.9 89 0.9 SSW 39 54 21 29 1016.6 1016.6 7.2
27/01:31am 11.7 5.1 11.5 99 0.1 SW 37 57 20 31 1015.8 1015.8 7.2
27/01:30am 11.8 5.3 11.6 99 0.1 SW 37 56 20 30 1015.8 1015.8 7.2
27/01:04am 11.7 6.5 11.7 100 0.0 SW 30 54 16 29 1015.1 1015.1 7.0
27/01:00am 11.7 6.2 11.7 100 0.0 SSW 32 48 17 26 1015.2 1015.2 7.0
27/12:30am 11.5 4.9 11.5 100 0.0 SW 37 59 20 32 1014.7 1014.7 7.0
27/12:25am 11.8 5.7 11.8 100 0.0 SW 35 59 19 32 1014.6 1014.6 7.0
27/12:04am 12.8 7.5 12.6 99 0.1 WSW 32 56 17 30 1014.3 1014.3 6.8
27/12:00am 12.7 7.8 12.4 98 0.2 WSW 30 44 16 24 1014.1 1014.1 6.8
 
Date/Time
CST
Temp
°C
App
Temp
°C
Dew
Point
°C
Rel
Hum
%
Delta-T
°C
Wind Press
QNH
hPa
Press
MSL
hPa
Rain since
9am
mm
Dir  Spd
km/h
Gust
km/h
Spd
kts
Gust
kts
26/11:47pm 13.0 7.6 12.1 94 0.5 WSW 32 50 17 27 1013.8 1013.8 6.8
26/11:30pm 12.9 6.5 10.6 86 1.2 SW 35 50 19 27 1013.5 1013.5 6.8
26/11:00pm 12.7 5.5 9.3 80 1.7 WSW 37 50 20 27 1013.1 1013.1 6.8
26/10:30pm 12.8 4.2 8.7 76 2.1 SW 44 65 24 35 1012.7 1012.7 6.8
26/10:08pm 12.0 5.7 10.9 93 0.6 WSW 35 56 19 30 1012.3 1012.3 6.8
26/10:00pm 12.5 4.7 11.2 92 0.7 WSW 43 57 23 31 1012.3 1012.3 6.8
26/09:30pm 12.3 4.1 10.4 88 1.0 WSW 44 63 24 34 1011.7 1011.7 6.8
26/09:02pm 12.8 5.8 9.8 82 1.5 WSW 37 57 20 31 1011.2 1011.2 6.8
26/09:00pm 12.9 5.4 9.5 80 1.7 WSW 39 57 21 31 1011.1 1011.1 6.8
26/08:30pm 12.4 5.7 11.0 91 0.7 WSW 37 57 20 31 1010.5 1010.5 6.8
26/08:00pm 11.3 4.1 10.7 96 0.3 WSW 39 57 21 31 1010.1 1010.1 6.8
26/07:34pm 12.8 6.5 12.3 97 0.3 WSW 37 56 20 30 1009.7 1009.7 6.6
26/07:30pm 13.1 6.2 11.5 90 0.9 WSW 39 54 21 29 1009.5 1009.5 6.4
26/07:18pm 12.8 6.3 9.1 78 1.9 WSW 33 54 18 29 1009.1 1009.1 6.4
26/07:00pm 12.8 6.0 9.3 79 1.8 WSW 35 50 19 27 1009.0 1009.0 6.4
26/06:33pm 12.9 4.6 9.5 80 1.7 WSW 43 65 23 35 1008.4 1008.4 6.4
26/06:30pm 12.8 4.6 9.6 81 1.6 WSW 43 61 23 33 1008.3 1008.3 6.4
26/06:00pm 12.4 4.4 11.1 92 0.7 WSW 44 65 24 35 1007.7 1007.7 6.4
26/05:30pm 11.8 3.9 11.3 97 0.3 WSW 44 69 24 37 1007.2 1007.2 6.2
26/05:17pm 11.3 4.3 11.3 100 0.0 WSW 39 59 21 32 1007.0 1007.0 6.2
26/05:15pm 11.3 3.5 11.3 100 0.0 WSW 43 65 23 35 1007.0 1007.0 6.2
26/05:04pm 10.8 1.6 10.8 100 0.0 WSW 50 76 27 41 1006.9 1006.9 6.2
26/05:02pm 11.1 2.3 10.9 99 0.1 WSW 48 76 26 41 1006.9 1006.9 6.2
26/05:00pm 11.8 3.9 11.6 99 0.1 WSW 44 65 24 35 1007.0 1007.0 6.2
26/04:35pm 11.3 3.9 11.1 99 0.1 W 41 59 22 32 1006.6 1006.6 6.2
26/04:30pm 11.6 3.9 11.4 99 0.1 WSW 43 59 23 32 1006.5 1006.5 6.2
26/04:14pm 11.7 4.1 11.7 100 0.0 WSW 43 69 23 37 1006.1 1006.2 6.0
26/04:00pm 12.0 4.3 12.0 100 0.0 W 44 61 24 33 1006.0 1006.1 6.0
26/03:36pm 11.6 3.9 11.6 100 0.0 WNW 43 83 23 45 1006.0 1006.1 5.4
26/03:32pm 11.6 5.1 11.6 100 0.0 WNW 37 57 20 31 1005.9 1006.0 4.4
26/03:30pm 11.6 5.1 11.6 100 0.0 WNW 37 54 20 29 1006.1 1006.2 4.2
26/03:01pm 11.9 5.5 11.9 100 0.0 NW 37 56 20 30 1005.8 1005.9 2.0
26/03:00pm 11.9 5.1 11.9 100 0.0 NW 39 56 21 30 1005.9 1006.0 2.0
26/02:30pm 11.9 5.8 11.9 100 0.0 NW 35 57 19 31 1007.1 1007.1 2.0
26/02:12pm 11.7 4.8 11.7 100 0.0 NW 39 57 21 31 1007.7 1007.7 2.0
26/02:00pm 11.6 4.7 11.6 100 0.0 NW 39 54 21 29 1007.9 1007.9 2.0
26/01:49pm 10.7 5.6 10.7 100 0.0 NW 28 50 15 27 1008.3 1008.3 2.0
26/01:30pm 10.4 4.9 10.4 100 0.0 NW 30 41 16 22 1009.0 1009.0 1.2
26/01:00pm 10.2 4.6 10.2 100 0.0 NW 30 41 16 22 1009.8 1009.8 0.8
26/12:33pm 10.9 4.7 10.0 94 0.5 NW 33 56 18 30 1010.3 1010.3 0.4
26/12:30pm 11.2 5.3 10.4 95 0.4 NW 32 46 17 25 1010.4 1010.4 0.2
26/12:00pm 11.2 4.4 10.7 97 0.3 NW 37 57 20 31 1011.2 1011.2 0.2
26/11:54am 11.3 4.5 10.5 95 0.4 NW 37 57 20 31 1011.2 1011.2 0.2
26/11:30am 11.9 5.2 9.6 86 1.2 NW 35 54 19 29 1011.7 1011.7 0.0
26/11:08am 12.4 6.0 9.4 82 1.5 NW 33 52 18 28 1012.0 1012.0 0.0
26/11:00am 12.6 5.8 9.4 81 1.6 NW 35 48 19 26 1012.0 1012.0 0.0
26/10:50am 13.1 6.9 9.5 79 1.8 NW 32 50 17 27 1012.1 1012.1 0.0
26/10:30am 12.3 6.0 8.8 79 1.8 NW 32 43 17 23 1012.7 1012.7 0.0
26/10:05am 11.8 6.3 9.0 83 1.4 NW 28 46 15 25 1012.9 1012.9 0.0
26/10:00am 11.7 6.6 9.1 84 1.3 NW 26 39 14 21 1012.9 1012.9 0.0
26/09:30am 11.2 5.8 8.2 82 1.5 NW 26 39 14 21 1013.3 1013.3 0.0
26/09:00am 11.2 6.7 8.4 83 1.4 NW 22 35 12 19 1013.4 1013.4 1.8
26/08:30am 10.4 6.3 8.8 90 0.8 NW 20 30 11 16 1013.8 1013.8 1.8
26/08:00am 9.5 5.0 8.6 94 0.4 NW 22 33 12 18 1013.9 1013.9 1.8
26/07:30am 9.5 6.1 7.8 89 0.8 WNW 15 30 8 16 1014.1 1014.1 1.8
26/07:00am 9.5 5.2 6.8 83 1.3 WNW 19 30 10 16 1013.9 1013.9 1.8
26/06:30am 8.6 5.6 7.8 95 0.4 W 13 20 7 11 1014.2 1014.2 1.8
26/06:00am 9.8 4.7 7.7 87 1.0 W 24 39 13 21 1014.7 1014.7 1.8
26/05:30am 9.8 6.0 5.8 76 1.8 W 15 26 8 14 1014.5 1014.5 1.6
26/05:00am 9.7 6.0 6.2 79 1.6 WNW 15 26 8 14 1014.5 1014.5 1.6
26/04:30am 9.7 5.2 5.9 77 1.7 W 19 28 10 15 1014.6 1014.6 1.6
26/04:00am 9.5 4.8 6.2 80 1.5 W 20 32 11 17 1015.0 1015.0 1.6
26/03:30am 9.2 4.7 7.0 86 1.0 W 20 32 11 17 1015.3 1015.3 1.6
26/03:00am 8.2 4.8 7.8 97 0.2 W 15 22 8 12 1015.5 1015.5 1.6
26/02:30am 9.1 4.7 9.0 99 0.0 W 22 39 12 21 1015.9 1015.9 1.6
26/02:00am 8.2 3.9 7.9 98 0.1 W 20 28 11 15 1015.9 1015.9 1.6
26/01:30am 9.1 2.7 7.1 87 0.9 WSW 30 52 16 28 1016.3 1016.3 1.4
26/01:28am 9.7 3.7 7.1 84 1.2 WSW 28 52 15 28 1016.3 1016.3 1.2
26/01:00am 9.8 5.1 6.0 77 1.8 WSW 20 30 11 16 1016.3 1016.3 1.2
26/12:30am 10.4 4.7 6.9 79 1.7 WSW 26 39 14 21 1016.4 1016.4 1.2
26/12:00am 9.7 4.4 6.8 82 1.4 W 24 35 13 19 1016.6 1016.6 1.2
 
Date/Time
CST
Temp
°C
App
Temp
°C
Dew
Point
°C
Rel
Hum
%
Delta-T
°C
Wind Press
QNH
hPa
Press
MSL
hPa
Rain since
9am
mm
Dir  Spd
km/h
Gust
km/h
Spd
kts
Gust
kts
25/11:30pm 10.8 4.2 6.2 73 2.1 WSW 30 39 16 21 1016.6 1016.6 1.2
25/11:00pm 10.5 5.0 7.6 82 1.4 WSW 26 48 14 26 1016.7 1016.7 1.2
25/10:30pm 10.8 4.3 4.7 66 2.8 WSW 28 46 15 25 1016.4 1016.4 1.2
25/10:25pm 10.8 4.5 5.6 70 2.4 WSW 28 46 15 25 1016.5 1016.5 1.2
25/10:00pm 11.3 5.2 6.6 73 2.2 WSW 28 39 15 21 1016.5 1016.5 1.2
25/09:30pm 11.2 3.7 3.7 60 3.3 WSW 32 43 17 23 1016.3 1016.3 1.2
25/09:00pm 10.8 4.8 3.6 61 3.2 WSW 24 33 13 18 1016.3 1016.3 1.2
25/08:30pm 11.2 4.1 5.3 67 2.7 WSW 32 43 17 23 1016.1 1016.1 1.2
25/08:00pm 11.1 3.6 3.6 60 3.3 WSW 32 43 17 23 1015.9 1015.9 1.2
25/07:30pm 11.2 3.1 3.3 58 3.5 WSW 35 52 19 28 1015.4 1015.4 1.2
25/07:00pm 10.9 3.1 4.8 66 2.8 WSW 35 54 19 29 1015.1 1015.1 1.2
25/06:38pm 10.9 3.2 5.4 69 2.5 WSW 35 54 19 29 1014.7 1014.7 1.2
25/06:30pm 10.9 2.9 5.7 70 2.4 WSW 37 54 20 29 1014.5 1014.5 1.2
25/06:00pm 11.4 3.9 4.2 61 3.2 WSW 33 52 18 28 1013.9 1013.9 1.2
25/05:34pm 11.4 3.5 4.6 63 3.1 WSW 35 54 19 29 1013.8 1013.8 1.2
25/05:30pm 11.4 2.8 4.6 63 3.1 WSW 39 54 21 29 1013.8 1013.8 1.2
25/05:04pm 11.7 2.5 5.3 65 3.0 WSW 43 63 23 34 1013.1 1013.1 1.2
25/05:00pm 11.8 2.4 5.4 65 3.0 WSW 44 59 24 32 1013.1 1013.1 1.2
25/04:31pm 12.3 3.0 7.4 72 2.4 WSW 46 65 25 35 1012.5 1012.5 1.2
25/04:30pm 12.2 2.9 7.5 73 2.3 WSW 46 63 25 34 1012.5 1012.5 1.2
25/04:01pm 12.0 5.1 9.0 82 1.5 WSW 35 59 19 32 1012.3 1012.3 1.2
25/04:00pm 12.1 5.3 9.1 82 1.5 WSW 35 54 19 29 1012.3 1012.3 1.2
25/03:30pm 11.5 3.4 9.9 90 0.8 WSW 43 69 23 37 1012.1 1012.1 1.2
25/03:00pm 12.1 4.0 10.8 92 0.7 WSW 44 63 24 34 1011.8 1011.8 1.2
25/02:57pm 12.2 4.1 10.8 91 0.7 WSW 44 63 24 34 1011.8 1011.8 1.2
25/02:30pm 12.0 3.9 12.0 100 0.0 WSW 46 65 25 35 1011.4 1011.4 1.2
25/02:00pm 12.1 4.6 12.1 100 0.0 WSW 43 61 23 33 1011.0 1011.0 1.2
25/01:46pm 11.9 4.3 11.9 100 0.0 W 43 70 23 38 1010.9 1010.9 1.2
25/01:45pm 12.1 4.6 12.1 100 0.0 W 43 67 23 36 1010.9 1010.9 1.2
25/01:30pm 12.4 6.5 12.4 100 0.0 W 35 57 19 31 1010.8 1010.8 1.0
25/01:08pm 13.2 6.0 13.2 100 0.0 W 43 80 23 43 1010.9 1010.9 0.8
25/01:00pm 13.5 7.2 13.5 100 0.0 WNW 39 59 21 32 1010.9 1010.9 0.6
25/12:32pm 13.3 8.1 13.3 100 0.0 WNW 33 54 18 29 1011.2 1011.2 0.6
25/12:30pm 13.6 8.5 13.6 100 0.0 WNW 33 46 18 25 1011.3 1011.3 0.2
25/12:11pm 14.9 9.3 14.4 97 0.3 WNW 37 57 20 31 1011.6 1011.6 0.0
25/12:00pm 13.8 7.5 13.6 99 0.1 WNW 39 54 21 29 1011.8 1011.8 0.0
25/11:30am 13.8 8.4 12.9 94 0.5 NW 33 56 18 30 1012.0 1012.0 0.0
25/11:02am 13.6 7.8 12.8 95 0.4 NW 35 56 19 30 1012.2 1012.2 0.0
25/11:00am 13.6 8.2 12.7 94 0.5 NW 33 52 18 28 1012.2 1012.2 0.0
25/10:32am 13.4 8.3 13.2 99 0.1 NW 32 50 17 27 1012.5 1012.5 0.0
25/10:30am 13.5 8.5 13.3 99 0.1 NW 32 44 17 24 1012.5 1012.5 0.0
25/10:03am 13.4 6.8 12.6 95 0.4 NW 39 57 21 31 1012.8 1012.8 0.0
25/10:00am 13.5 7.3 12.7 95 0.4 NW 37 54 20 29 1012.8 1012.8 0.0
25/09:30am 12.5 6.5 12.2 98 0.2 NW 35 54 19 29 1012.9 1012.9 0.0
25/09:05am 11.6 6.7 11.4 99 0.1 NW 28 48 15 26 1012.9 1012.9 0.0
25/09:00am 11.2 7.0 11.2 100 0.0 NW 24 35 13 19 1013.0 1013.0 6.4
25/08:40am 12.3 6.6 9.9 85 1.2 NW 30 57 16 31 1013.3 1013.3 6.2
25/08:30am 12.4 7.1 9.8 84 1.3 NW 28 41 15 22 1013.2 1013.2 6.2
25/08:00am 12.4 7.5 10.0 85 1.2 NW 26 37 14 20 1013.2 1013.2 6.2
25/07:30am 12.2 7.9 9.4 83 1.4 WNW 22 39 12 21 1013.4 1013.4 6.2
25/07:00am 11.9 6.6 8.4 79 1.7 WNW 26 48 14 26 1013.3 1013.3 6.2
25/06:30am 12.1 7.3 8.8 80 1.6 WNW 24 39 13 21 1013.3 1013.3 6.2
25/06:08am 11.6 5.8 8.1 79 1.7 WNW 28 48 15 26 1013.5 1013.5 6.2
25/06:00am 11.8 5.6 7.7 76 2.0 W 30 48 16 26 1013.4 1013.4 6.2
25/05:31am 11.5 6.0 9.1 85 1.2 W 28 46 15 25 1013.6 1013.6 6.2
25/05:30am 11.6 6.2 9.5 87 1.1 W 28 43 15 23 1013.6 1013.6 6.2
25/05:00am 10.6 6.6 10.3 98 0.2 WNW 22 35 12 19 1013.7 1013.7 6.2
25/04:32am 10.9 5.9 10.9 100 0.0 W 28 46 15 25 1014.0 1014.0 6.2

Other Formats:

Comma delimited format used in spreadsheet applications
http://www.bom.gov.au/fwo/IDS60801/IDS60801.95806.axf

JavaScript Object Notation format (JSON) in row-major order
http://www.bom.gov.au/fwo/IDS60801/IDS60801.95806.json